Saint Truiden, Belgium

3:55 AM CEST on September 02, 2014 (GMT +0200)
IVLAAMSG20 | Change Station
CLOSE
Current Station
Personal Weather Station
Location: Landen, VLAAMS GEWEST
Elevation: 0 ft
Nearby Weather Stations

Elev 0 ft 50.74 °N, 5.08 °E | Updated 2 minutes ago

Mostly Cloudy
Mostly Cloudy
60.3 °F
Feels Like 60.3 °F
N
0.0
Wind Variable Wind from WNW

Today
High -- | Low -- °F
--% Chance of Precip.
Yesterday
High -- | Low -- °F
Precip. -- in
6:54 AM 8:22 PM
Waxing Crescent, 46% visible
Pressure 30.15 in
Visibility 4.3 miles
Clouds Mostly Cloudy 5000 ft
Dew Point 57 °F
Humidity 90%
Rainfall 0.00 in
Snow Depth Not available.
UV 0.0 out of 12
Pollen Not available.
Air Quality Not available.
Flu Activity Not available.
SPECI EBDT 020145Z AUTO VRB02KT 7000 BKN050/// 15/14 Q1021 WHT

More Conditions Fewer Conditions

Pressure 30.15 in
Visibility 4.3 miles
Clouds Mostly Cloudy 5000 ft
Dew Point 57 °F
Humidity 90%
Rainfall 0.00 in
Snow Depth Not available.
UV 0.0 out of 12
Pollen Not available.
Air Quality Not available.
Flu Activity Not available.
SPECI EBDT 020145Z AUTO VRB02KT 7000 BKN050/// 15/14 Q1021 WHT

More Conditions Fewer Conditions

10-Day Weather Forecast

Almanac

Astronomy

Sep. 02, 2014 Rise Set
Actual Time 6:54 AM CEST 8:22 PM CEST
Civil Twilight 6:19 AM CEST 8:56 PM CEST
Nautical Twilight 5:38 AM CEST 9:38 PM CEST
Astronomical Twilight 4:52 AM CEST 10:23 PM CEST
Moon 3:08 PM CEST No Moon Set
Length of Visible Light 14h 36m
Length of Day
13h 28m
Tomorrow will be 3m 44s shorter.
Waxing Crescent, 46% of the Moon is Illuminated
Sep 1
Waxing Crescent
Sep 2
First Quarter
Sep 8
Full
Sep 15
Last Quarter
Sep 24
New

Yesterday's Extremes

Country Highs Country Lows

Community

WunderPhotos

Upload Photos

1,749,476 photos uploaded!

Nearby

Snow Depth

Not available.

Earthquake Activity

City Distance Mag. Time & Date
No recent earthquake activity has been reported nearby.
Minimum magnitude displayed is 2.5.

Coastal Water Temperatures

Place Temperature
No Stations Reporting

Nearby Weather Stations